Tropical Cyclones
[Index]
Main Index Home Page Stock Weather Photos Extreme Storms Discussion Storm News and Storm Chasing Reports Tropical Cyclones / Hurricanes / Typhoons Weather Data and Links Wild Fires / Bushfires Weather Observation Techniques Weather Picture Catalogue Tornado Pictures and Reports Stock Video Footage and DVDs for sale
Season 2013-2014 Tropical Cyclone EDNA Track Map
Season 2013-2014 Summaries: [BoM-AU] [JTWC-AU] [JTWC-SIO] [JTWC-SPAC] [JTWC-SH]
<<- Previous TC | BoM 2013-2014 Season | Next TC ->>

click for intensity scale information  Lat/long Grid: Show Hide

 Date Labels: Show Hide

Bureau of Meteorology Tropical Cyclone Data

Name: EDNA
Number: 976 / 201314_10

31 Jan 2014 15:00 UTC to 05 Feb 2014 06:00 UTC

    date/time    lat    long    hPa   cat  kts
2014-01-31 15   18.4   151.5    999         30          
2014-01-31 18   19.1   152.0    997         35          
2014-01-31 21   19.9   152.5    997         35          
2014-02-01 00   20.2   152.9    992    1    40          
2014-02-01 03   20.5   153.3    994    1    35          
2014-02-01 06   20.8   153.3    992    1    35          
2014-02-01 09   20.9   152.3    995    1    35          
2014-02-01 12   20.9   152.2    996         30          
2014-02-02 00   19.9   150.5    999         25          
2014-02-02 03   19.5   150.3    999         25          
2014-02-02 06   19.0   150.3    998         25          
2014-02-02 12   17.1   150.6    998         25          
2014-02-02 18   15.5   151.6    998         30          
2014-02-03 00   14.6   152.8                            
2014-02-03 03   13.8   154.2    997         30          
2014-02-03 06   13.8   154.5    996         30          
2014-02-03 09   13.7   155.3                            
2014-02-03 12   14.0   155.6   1000         30          
2014-02-03 18   14.1   156.9    998         25          
2014-02-04 03   14.5   159.8    994    1    35          
2014-02-04 12   16.9   161.6    995    1    35          
2014-02-04 18   18.8   162.4    995    1    35          
2014-02-05 00   20.5   162.9    995    1    35          
2014-02-05 06   22.0   164.4    988    1                
Winds are 10-min average.

Tropical cyclone tracks developed by Michael Bath using data from the Bureau of Meteorology and Google Maps.


[Australian Severe Weather index] [Copyright Notice] [Email Contacts] [Search This Site] [Privacy Policy]
Document: tropical_cyclone_edna.htm Updated: 29 June 2017